Time;durP1;ratioP1;P1;durP2;ratioP2;P2;SDS_P1;SDS_P2;PMS_P1;PMS_P2;Temp;Humidity;BMP_temperature;BMP_pressure;BME280_temperature;BME280_humidity;BME280_pressure;Samples;Min_cycle;Max_cycle;Signal;HPM_P1;HPM_P2
2023/05/09 00:01:58;;;;;;;69.00;29.13;;;14.10;99.90;;;;;;5011435;28;20088;-69
2023/05/09 00:04:24;;;;;;;62.13;26.67;;;14.10;99.90;;;;;;5010956;28;20026;-69
2023/05/09 00:06:50;;;;;;;67.88;27.05;;;14.10;99.90;;;;;;5011454;28;20421;-69
2023/05/09 00:09:16;;;;;;;68.33;27.67;;;14.10;99.90;;;;;;5011855;28;20030;-69
2023/05/09 00:11:42;;;;;;;67.25;26.35;;;14.00;99.90;;;;;;5010981;28;20120;-69
2023/05/09 00:14:09;;;;;;;63.60;27.77;;;14.00;99.90;;;;;;5012151;28;20050;-69
2023/05/09 00:16:35;;;;;;;;;;;14.00;99.90;;;;;;5011417;28;20623;-69
2023/05/09 00:19:02;;;;;;;59.70;25.00;;;14.00;99.90;;;;;;5009179;28;20213;-69
2023/05/09 00:21:27;;;;;;;65.60;26.77;;;14.00;99.90;;;;;;5008884;28;20161;-69
2023/05/09 00:23:53;;;;;;;70.63;26.90;;;14.00;99.90;;;;;;5007973;28;20030;-69
2023/05/09 00:26:20;;;;;;;69.83;26.90;;;14.00;99.90;;;;;;5010209;28;20084;-69
2023/05/09 00:28:46;;;;;;;59.17;25.98;;;14.00;99.90;;;;;;5008924;28;20120;-69
2023/05/09 00:31:12;;;;;;;66.73;26.43;;;14.00;99.90;;;;;;5009097;28;20057;-69
2023/05/09 00:33:38;;;;;;;55.93;25.70;;;14.00;99.90;;;;;;5011765;28;20463;-69
2023/05/09 00:36:04;;;;;;;63.65;27.33;;;14.00;99.90;;;;;;5011437;28;20030;-69
2023/05/09 00:38:30;;;;;;;62.65;28.27;;;14.00;99.90;;;;;;5011079;28;20022;-69
2023/05/09 00:40:55;;;;;;;68.33;27.07;;;14.00;99.90;;;;;;5009698;28;20407;-69
2023/05/09 00:43:21;;;;;;;65.97;27.83;;;14.00;99.90;;;;;;5011627;28;20515;-69
2023/05/09 00:45:47;;;;;;;67.83;29.30;;;14.10;99.90;;;;;;5000269;28;20037;-69
2023/05/09 00:48:14;;;;;;;64.17;29.27;;;14.10;99.90;;;;;;5010846;28;20400;-69
2023/05/09 00:50:40;;;;;;;70.07;29.98;;;14.00;99.90;;;;;;5006203;28;20038;-69
2023/05/09 00:53:06;;;;;;;69.80;30.37;;;14.10;99.90;;;;;;5005200;28;20414;-69
2023/05/09 00:55:32;;;;;;;65.95;29.02;;;14.10;99.90;;;;;;4995489;28;20037;-69
2023/05/09 00:57:58;;;;;;;68.65;29.73;;;14.00;99.90;;;;;;5008494;28;20041;-69
2023/05/09 01:00:24;;;;;;;70.87;29.27;;;14.00;99.90;;;;;;4996583;28;20023;-69
2023/05/09 01:02:52;;;;;;;69.67;31.10;;;14.00;99.90;;;;;;5009461;28;20025;-69
2023/05/09 01:05:19;;;;;;;76.57;28.58;;;14.00;99.90;;;;;;5014500;28;20045;-69
2023/05/09 01:08:02;;;;;;;70.18;30.25;;;14.00;99.90;;;;;;5008844;28;20026;-69
2023/05/09 01:10:38;;;;;;;61.28;28.48;;;14.00;99.90;;;;;;5013476;28;20030;-69
2023/05/09 01:13:11;;;;;;;72.15;29.63;;;14.00;99.90;;;;;;5012754;28;20053;-69
2023/05/09 01:15:57;;;;;;;69.85;29.63;;;14.00;99.90;;;;;;5009140;28;20030;-69
2023/05/09 01:18:48;;;;;;;73.72;29.73;;;14.00;99.90;;;;;;5013247;28;20061;-69
2023/05/09 01:21:20;;;;;;;75.20;29.65;;;14.00;99.90;;;;;;5018145;28;20058;-69
2023/05/09 01:24:22;;;;;;;65.68;28.27;;;14.10;99.90;;;;;;5015954;28;20026;-69
2023/05/09 01:27:25;;;;;;;80.88;31.08;;;14.10;99.90;;;;;;4995850;28;20083;-70
2023/05/09 01:29:56;;;;;;;75.32;29.35;;;14.00;99.90;;;;;;5011678;28;20080;-69
2023/05/09 01:32:30;;;;;;;69.38;31.63;;;14.00;99.90;;;;;;5017178;28;20045;-69
2023/05/09 01:35:01;;;;;;;71.72;29.17;;;14.00;99.90;;;;;;5017893;28;20037;-69
2023/05/09 01:37:33;;;;;;;75.88;30.85;;;14.00;99.90;;;;;;5015827;28;20041;-69
2023/05/09 01:40:05;;;;;;;72.20;29.48;;;14.00;99.90;;;;;;5013106;28;20030;-69
2023/05/09 01:42:42;;;;;;;75.78;30.50;;;14.00;99.90;;;;;;5001978;28;20075;-82
2023/05/09 01:45:10;;;;;;;75.82;30.98;;;14.00;99.90;;;;;;5017843;28;20563;-69
2023/05/09 01:47:38;;;;;;;68.40;28.77;;;13.90;99.90;;;;;;5016774;28;20034;-69
2023/05/09 01:50:05;;;;;;;76.53;31.73;;;14.00;99.90;;;;;;5016409;28;20038;-70
2023/05/09 01:52:32;;;;;;;75.25;29.58;;;14.00;99.90;;;;;;5016419;28;20030;-69
2023/05/09 01:55:01;;;;;;;77.70;30.77;;;13.90;99.90;;;;;;5016873;28;20030;-69
2023/05/09 01:57:29;;;;;;;75.53;30.88;;;13.90;99.90;;;;;;5016872;28;20761;-83
2023/05/09 01:59:57;;;;;;;75.60;31.27;;;13.90;99.90;;;;;;5016856;28;20037;-70
2023/05/09 02:02:26;;;;;;;78.57;30.50;;;13.90;99.90;;;;;;5016839;28;20033;-69
2023/05/09 02:04:54;;;;;;;74.50;31.05;;;13.90;99.90;;;;;;5013918;28;20026;-69
2023/05/09 02:07:22;;;;;;;71.70;30.20;;;13.90;99.90;;;;;;5015817;28;20029;-69
2023/05/09 02:09:49;;;;;;;73.35;30.33;;;13.90;99.90;;;;;;5015829;28;20119;-69
2023/05/09 02:12:15;;;;;;;82.15;31.63;;;13.90;99.90;;;;;;5017717;28;20113;-69
2023/05/09 02:14:40;;;;;;;71.33;31.00;;;13.90;99.90;;;;;;5015412;28;20398;-70
2023/05/09 02:17:08;;;;;;;78.87;31.63;;;13.90;99.90;;;;;;5017037;28;20034;-70
2023/05/09 02:19:34;;;;;;;74.38;30.40;;;13.90;99.90;;;;;;5016198;28;20405;-69
2023/05/09 02:22:01;;;;;;;70.45;29.42;;;13.90;99.90;;;;;;5017304;28;20026;-83
2023/05/09 02:24:27;;;;;;;72.82;28.70;;;13.90;99.90;;;;;;5016262;28;20058;-69
2023/05/09 02:26:54;;;;;;;69.40;29.17;;;13.90;99.90;;;;;;5014637;28;20099;-69
2023/05/09 02:29:25;;;;;;;68.20;28.77;;;13.90;99.90;;;;;;5013606;28;20030;-69
2023/05/09 02:31:52;;;;;;;71.53;29.38;;;13.90;99.90;;;;;;5016574;28;20101;-69
2023/05/09 02:34:18;;;;;;;73.78;29.83;;;13.80;99.90;;;;;;5016200;28;20396;-69
2023/05/09 02:36:44;;;;;;;76.78;30.10;;;13.80;99.90;;;;;;5015996;28;20038;-69
2023/05/09 02:39:10;;;;;;;75.40;28.33;;;13.80;99.90;;;;;;5015688;28;20038;-82
2023/05/09 02:41:36;;;;;;;72.22;28.88;;;13.80;99.90;;;;;;5016195;28;20030;-69
2023/05/09 02:44:02;;;;;;;69.30;28.90;;;13.80;99.90;;;;;;5015584;28;20038;-69
2023/05/09 02:46:28;;;;;;;67.77;29.20;;;13.90;99.90;;;;;;5016985;28;20436;-84
2023/05/09 02:48:54;;;;;;;67.60;28.38;;;13.90;99.90;;;;;;5015886;28;20021;-69
2023/05/09 02:51:20;;;;;;;70.90;28.02;;;13.90;99.90;;;;;;5014171;28;20046;-70
2023/05/09 02:53:45;;;;;;;66.87;27.83;;;13.90;99.90;;;;;;5015100;28;20037;-69
2023/05/09 02:56:11;;;;;;;73.57;28.87;;;13.90;99.90;;;;;;5015272;28;20700;-88
2023/05/09 02:58:37;;;;;;;69.30;30.03;;;13.90;99.90;;;;;;5016439;28;20022;-70
2023/05/09 03:01:03;;;;;;;65.47;28.53;;;13.90;99.90;;;;;;5014186;28;20022;-69
2023/05/09 03:03:32;;;;;;;73.77;29.80;;;13.90;99.90;;;;;;5015688;28;20065;-69
2023/05/09 03:05:58;;;;;;;71.93;28.38;;;13.90;99.90;;;;;;5008895;28;20018;-69
2023/05/09 03:08:23;;;;;;;65.63;28.03;;;13.90;99.90;;;;;;5010679;28;20053;-70
2023/05/09 03:10:50;;;;;;;63.67;27.30;;;13.90;99.90;;;;;;5010010;28;20105;-89
2023/05/09 03:13:15;;;;;;;70.68;28.02;;;13.90;99.90;;;;;;5011420;28;20026;-69
2023/05/09 03:15:41;;;;;;;74.13;28.87;;;13.90;99.90;;;;;;5008734;28;20041;-69
2023/05/09 03:18:07;;;;;;;68.97;28.43;;;13.90;99.90;;;;;;5011051;28;20034;-69
2023/05/09 03:20:32;;;;;;;66.17;27.70;;;13.90;99.90;;;;;;5015097;28;20033;-69
2023/05/09 03:22:58;;;;;;;72.73;28.73;;;13.80;99.90;;;;;;5015199;28;20417;-69
2023/05/09 03:25:25;;;;;;;67.17;26.30;;;13.80;99.90;;;;;;5015869;28;20030;-69
2023/05/09 03:27:50;;;;;;;60.35;26.75;;;13.80;99.90;;;;;;5014392;28;20033;-70
2023/05/09 03:30:16;;;;;;;69.13;26.80;;;13.80;99.90;;;;;;5015025;28;20018;-69
2023/05/09 03:32:42;;;;;;;67.30;28.73;;;13.80;99.90;;;;;;5014351;28;20029;-70
2023/05/09 03:35:08;;;;;;;63.00;27.77;;;13.80;99.90;;;;;;5014427;28;20037;-69
2023/05/09 03:37:33;;;;;;;69.83;25.27;;;13.80;99.90;;;;;;5010359;28;20057;-69
2023/05/09 03:39:59;;;;;;;62.17;27.17;;;13.70;99.90;;;;;;5008061;28;20500;-70
2023/05/09 03:42:24;;;;;;;68.50;26.40;;;13.70;99.90;;;;;;5010314;28;20049;-70
2023/05/09 03:44:50;;;;;;;66.83;27.03;;;13.60;99.90;;;;;;5014371;28;20053;-69
2023/05/09 03:47:16;;;;;;;69.67;26.93;;;13.70;99.90;;;;;;5014987;28;20028;-70
2023/05/09 03:49:41;;;;;;;69.70;27.17;;;13.60;99.90;;;;;;5014835;28;20040;-69
2023/05/09 03:52:07;;;;;;;62.27;26.47;;;13.70;99.90;;;;;;5013419;28;20389;-69
2023/05/09 03:54:33;;;;;;;58.27;24.80;;;13.70;99.90;;;;;;5015206;28;20022;-69
2023/05/09 03:56:58;;;;;;;66.70;26.60;;;13.60;99.90;;;;;;5014807;28;20034;-69
2023/05/09 03:59:24;;;;;;;67.63;25.87;;;13.60;99.90;;;;;;5013420;28;20056;-69
2023/05/09 04:01:50;;;;;;;63.47;25.67;;;13.60;99.90;;;;;;5014777;28;20026;-69
2023/05/09 04:04:15;;;;;;;60.63;25.50;;;13.60;99.90;;;;;;5014782;28;20172;-69
2023/05/09 04:06:41;;;;;;;57.23;24.63;;;13.50;99.90;;;;;;5014695;28;20604;-69
2023/05/09 04:09:08;;;;;;;64.73;26.27;;;13.60;99.90;;;;;;5005610;28;20505;-69
2023/05/09 04:11:33;;;;;;;64.10;27.50;;;13.60;99.90;;;;;;5012119;28;20034;-69
2023/05/09 04:13:59;;;;;;;61.87;25.23;;;13.50;99.90;;;;;;5010574;28;20037;-83
2023/05/09 04:16:25;;;;;;;72.80;27.00;;;13.50;99.90;;;;;;5014826;28;20026;-69
2023/05/09 04:18:50;;;;;;;57.60;24.93;;;13.50;99.90;;;;;;5012949;28;20034;-69
2023/05/09 04:21:16;;;;;;;57.83;25.17;;;13.50;99.90;;;;;;5013605;28;20022;-69
2023/05/09 04:23:42;;;;;;;58.43;25.47;;;13.50;99.90;;;;;;5014262;28;20116;-69
2023/05/09 04:26:11;;;;;;;68.32;24.75;;;13.50;99.90;;;;;;5015248;28;20076;-69
2023/05/09 04:28:36;;;;;;;54.75;24.25;;;13.50;99.90;;;;;;5012638;28;20026;-69
2023/05/09 04:31:02;;;;;;;61.40;26.07;;;13.50;99.90;;;;;;5012752;28;20389;-76
2023/05/09 04:33:28;;;;;;;62.20;25.07;;;13.60;99.90;;;;;;5014191;28;20033;-69
2023/05/09 04:35:53;;;;;;;51.67;22.70;;;13.60;99.90;;;;;;5013458;28;20128;-69
2023/05/09 04:38:20;;;;;;;52.20;23.40;;;13.70;99.90;;;;;;5014305;28;20030;-69
2023/05/09 04:40:46;;;;;;;49.33;21.55;;;13.70;99.90;;;;;;5005313;28;20050;-69
2023/05/09 04:43:11;;;;;;;48.95;22.27;;;13.60;99.90;;;;;;5013464;28;20362;-69
2023/05/09 04:45:37;;;;;;;54.17;23.17;;;13.60;99.90;;;;;;5014045;28;20097;-69
2023/05/09 04:48:03;;;;;;;52.37;22.00;;;13.70;99.90;;;;;;5014787;28;20038;-70
2023/05/09 04:50:29;;;;;;;56.50;22.10;;;13.70;99.90;;;;;;5007643;28;20046;-69
2023/05/09 04:52:55;;;;;;;49.67;21.90;;;13.70;99.90;;;;;;5011859;28;20314;-69
2023/05/09 04:55:20;;;;;;;43.10;20.73;;;13.70;99.90;;;;;;5003539;28;20087;-69
2023/05/09 04:57:46;;;;;;;44.10;21.43;;;13.70;99.90;;;;;;5013614;28;20410;-69
2023/05/09 05:00:13;;;;;;;41.33;20.33;;;13.80;99.90;;;;;;5014127;28;20083;-69
2023/05/09 05:02:39;;;;;;;43.92;21.23;;;13.80;99.90;;;;;;5012963;28;20401;-69
2023/05/09 05:05:05;;;;;;;46.20;20.47;;;13.80;99.90;;;;;;5000476;28;20161;-69
2023/05/09 05:07:31;;;;;;;46.60;21.02;;;13.80;99.90;;;;;;5007822;28;20014;-69
2023/05/09 05:09:59;;;;;;;41.67;20.40;;;13.80;99.90;;;;;;5008806;28;20056;-68
2023/05/09 05:12:25;;;;;;;45.15;20.45;;;13.90;99.90;;;;;;5004508;28;20113;-68
2023/05/09 05:14:50;;;;;;;43.87;20.47;;;13.90;99.90;;;;;;5014311;28;20172;-69
2023/05/09 05:17:17;;;;;;;41.83;20.00;;;13.90;99.90;;;;;;5014129;28;20102;-69
2023/05/09 05:19:42;;;;;;;42.08;19.75;;;13.90;99.90;;;;;;5002793;28;20033;-70
2023/05/09 05:22:08;;;;;;;42.00;21.20;;;14.00;99.90;;;;;;5012295;28;20060;-69
2023/05/09 05:24:34;;;;;;;40.37;19.00;;;14.00;99.90;;;;;;5016465;28;20313;-69
2023/05/09 05:27:00;;;;;;;44.58;20.90;;;14.00;99.90;;;;;;5011383;28;20317;-69
2023/05/09 05:29:26;;;;;;;42.10;19.63;;;14.00;99.90;;;;;;5013442;28;20036;-69
2023/05/09 05:31:51;;;;;;;45.57;18.47;;;14.10;99.90;;;;;;5013360;28;20033;-69
2023/05/09 05:34:17;;;;;;;47.30;20.70;;;14.20;99.90;;;;;;5013340;28;20038;-70
2023/05/09 05:36:43;;;;;;;36.47;18.33;;;14.20;99.90;;;;;;5011274;28;20038;-68
2023/05/09 05:39:08;;;;;;;40.17;18.87;;;14.20;99.90;;;;;;5002775;28;20022;-70
2023/05/09 05:41:34;;;;;;;38.90;18.13;;;14.20;99.90;;;;;;5008462;28;20298;-70
2023/05/09 05:44:00;;;;;;;43.93;19.80;;;14.20;99.90;;;;;;5013374;28;20116;-70
2023/05/09 05:46:25;;;;;;;39.53;19.53;;;14.30;99.90;;;;;;5012807;28;20301;-70
2023/05/09 05:48:51;;;;;;;38.73;19.03;;;14.30;99.90;;;;;;5013691;28;20643;-70
2023/05/09 05:51:17;;;;;;;44.90;19.27;;;14.30;99.90;;;;;;5013008;28;20564;-70
2023/05/09 05:53:42;;;;;;;39.67;20.03;;;14.20;99.90;;;;;;5013136;28;20045;-70
2023/05/09 05:56:08;;;;;;;42.80;19.47;;;14.20;99.90;;;;;;5012992;28;20109;-71
2023/05/09 05:58:34;;;;;;;40.57;17.80;;;14.20;99.90;;;;;;5013641;28;20029;-71
2023/05/09 06:01:00;;;;;;;42.33;18.43;;;14.30;99.90;;;;;;5011272;28;20412;-70
2023/05/09 06:03:26;;;;;;;35.45;17.98;;;14.20;99.90;;;;;;5015840;28;20455;-69
2023/05/09 06:05:52;;;;;;;38.37;18.77;;;14.20;99.90;;;;;;5016170;28;20034;-70
2023/05/09 06:08:17;;;;;;;34.30;17.90;;;14.20;99.90;;;;;;5017224;28;20456;-70
2023/05/09 06:10:43;;;;;;;37.20;17.47;;;14.20;99.90;;;;;;5013986;28;20112;-70
2023/05/09 06:13:09;;;;;;;42.57;17.60;;;14.20;99.90;;;;;;5014704;28;20410;-70
2023/05/09 06:15:34;;;;;;;34.97;17.80;;;14.20;99.90;;;;;;5016073;28;20070;-70
2023/05/09 06:18:01;;;;;;;38.60;17.40;;;14.20;99.90;;;;;;5012693;28;20364;-69
2023/05/09 06:20:26;;;;;;;35.78;16.85;;;14.20;99.90;;;;;;5018822;28;20026;-70
2023/05/09 06:22:52;;;;;;;35.90;16.93;;;14.10;99.90;;;;;;5016566;28;20421;-70
2023/05/09 06:25:18;;;;;;;41.63;18.97;;;14.00;99.90;;;;;;5004804;28;20724;-71
2023/05/09 06:27:43;;;;;;;36.23;17.50;;;14.10;99.90;;;;;;5014645;28;20022;-71
2023/05/09 06:30:09;;;;;;;32.90;17.27;;;14.10;99.90;;;;;;5012887;28;20030;-69
2023/05/09 06:32:36;;;;;;;36.95;16.98;;;14.00;99.90;;;;;;5020361;28;20034;-68
2023/05/09 06:35:02;;;;;;;37.15;17.45;;;14.00;99.90;;;;;;5022241;28;20051;-69
2023/05/09 06:37:32;;;;;;;38.50;18.43;;;14.00;99.90;;;;;;5017595;28;20364;-71
2023/05/09 06:39:58;;;;;;;39.03;18.02;;;14.00;99.90;;;;;;5024162;28;20512;-70
2023/05/09 06:42:23;;;;;;;35.50;17.13;;;14.10;99.90;;;;;;5022130;28;20105;-71
2023/05/09 06:44:49;;;;;;;39.33;17.40;;;14.10;99.90;;;;;;5019107;28;20484;-70
2023/05/09 06:47:15;;;;;;;39.93;18.00;;;14.10;99.90;;;;;;5017867;28;20034;-70
2023/05/09 06:49:41;;;;;;;35.80;17.50;;;14.10;99.90;;;;;;5024332;28;20040;-70
2023/05/09 06:52:07;;;;;;;34.50;17.80;;;14.10;99.90;;;;;;5017464;28;20034;-71
2023/05/09 06:54:33;;;;;;;33.23;17.20;;;14.20;99.90;;;;;;5017039;28;20030;-73
2023/05/09 06:56:59;;;;;;;30.87;16.47;;;14.20;99.90;;;;;;5013106;28;20062;-71
2023/05/09 06:59:25;;;;;;;35.75;16.83;;;14.20;99.90;;;;;;5013914;28;20483;-71
2023/05/09 07:01:51;;;;;;;37.92;17.15;;;14.20;99.90;;;;;;5016203;28;20422;-71
2023/05/09 07:04:17;;;;;;;31.77;16.70;;;14.20;99.90;;;;;;5009828;28;20038;-70
2023/05/09 07:06:43;;;;;;;32.37;17.70;;;14.10;99.90;;;;;;5023380;28;20033;-71
2023/05/09 07:09:08;;;;;;;34.00;17.03;;;14.20;99.90;;;;;;5020336;28;20103;-70
2023/05/09 07:11:37;;;;;;;34.27;17.23;;;14.20;99.90;;;;;;5011259;28;20028;-70
2023/05/09 07:14:03;;;;;;;29.42;16.35;;;14.20;99.90;;;;;;5012093;28;20033;-72
2023/05/09 07:16:29;;;;;;;32.97;16.60;;;14.20;99.90;;;;;;5020544;28;21399;-79
2023/05/09 07:18:55;;;;;;;32.93;17.10;;;14.20;99.90;;;;;;5024921;28;20523;-79
2023/05/09 07:21:20;;;;;;;38.42;16.92;;;14.20;99.90;;;;;;5014220;28;20028;-70
2023/05/09 07:23:46;;;;;;;30.03;15.77;;;14.20;99.90;;;;;;5015910;28;20037;-71
2023/05/09 07:26:12;;;;;;;33.60;17.95;;;14.20;99.90;;;;;;5012780;28;20040;-71
2023/05/09 07:28:38;;;;;;;35.53;16.93;;;14.20;99.90;;;;;;5019887;28;20029;-70
2023/05/09 07:31:04;;;;;;;30.80;16.37;;;14.30;99.90;;;;;;5016196;28;20101;-70
2023/05/09 07:33:30;;;;;;;40.08;15.63;;;14.30;99.90;;;;;;5019055;28;20053;-80
2023/05/09 07:35:58;;;;;;;32.70;16.20;;;14.30;99.90;;;;;;5014571;28;20302;-69
2023/05/09 07:38:24;;;;;;;29.23;15.55;;;14.30;99.90;;;;;;5007533;28;20058;-71
2023/05/09 07:40:49;;;;;;;31.17;15.93;;;14.30;99.90;;;;;;5018234;28;20085;-71
2023/05/09 07:43:15;;;;;;;25.10;14.60;;;14.30;99.90;;;;;;5024107;28;20301;-71
2023/05/09 07:45:40;;;;;;;30.83;15.73;;;14.40;99.90;;;;;;5014044;28;20349;-70
2023/05/09 07:48:06;;;;;;;28.93;15.10;;;14.30;99.90;;;;;;5016259;28;20065;-70
2023/05/09 07:50:32;;;;;;;32.83;14.83;;;14.40;99.90;;;;;;5017369;28;20046;-83
2023/05/09 07:52:58;;;;;;;26.92;15.65;;;14.40;99.90;;;;;;5024032;28;20048;-70
2023/05/09 07:55:24;;;;;;;27.95;14.60;;;14.40;99.90;;;;;;5019579;28;20023;-69
2023/05/09 07:57:50;;;;;;;25.00;13.40;;;14.40;99.90;;;;;;5008692;28;20029;-70
2023/05/09 08:00:16;;;;;;;30.37;15.27;;;14.40;99.90;;;;;;5005603;28;20053;-70
2023/05/09 08:02:41;;;;;;;27.33;14.50;;;14.40;99.90;;;;;;5014015;28;20295;-69
2023/05/09 08:05:10;;;;;;;26.40;14.73;;;14.40;99.90;;;;;;5021450;28;20032;-69
2023/05/09 08:07:35;;;;;;;29.13;14.52;;;14.40;99.90;;;;;;5012685;28;20040;-76
2023/05/09 08:10:02;;;;;;;29.10;15.93;;;14.40;99.90;;;;;;4999887;28;20416;-70
2023/05/09 08:12:27;;;;;;;28.45;14.73;;;14.50;99.90;;;;;;5006662;28;20502;-70
2023/05/09 08:14:53;;;;;;;27.47;14.67;;;14.50;99.90;;;;;;5010583;28;20057;-70
2023/05/09 08:17:18;;;;;;;28.37;15.33;;;14.60;99.90;;;;;;5013577;28;20111;-69
2023/05/09 08:19:44;;;;;;;26.97;13.90;;;14.60;99.90;;;;;;5012274;28;20026;-71
2023/05/09 08:22:16;;;;;;;26.37;12.60;;;14.60;99.90;;;;;;5010150;28;20116;-69
2023/05/09 08:24:42;;;;;;;22.52;12.20;;;14.70;99.90;;;;;;5007172;28;20034;-81
2023/05/09 08:27:08;;;;;;;20.53;12.90;;;14.70;99.90;;;;;;5015321;28;20033;-70
2023/05/09 08:29:34;;;;;;;19.43;12.53;;;14.60;99.90;;;;;;5016834;28;20030;-69
2023/05/09 08:32:00;;;;;;;23.03;12.90;;;14.60;99.90;;;;;;5013593;28;20025;-69
2023/05/09 08:34:26;;;;;;;19.87;12.00;;;14.60;99.90;;;;;;5014037;28;20104;-70
2023/05/09 08:36:52;;;;;;;27.80;12.73;;;14.50;99.90;;;;;;5014577;28;20322;-69
2023/05/09 08:39:18;;;;;;;20.30;12.15;;;14.50;99.90;;;;;;5012641;28;20038;-70
2023/05/09 08:41:44;;;;;;;19.00;11.30;;;14.50;99.90;;;;;;5016423;28;20033;-70
2023/05/09 08:44:10;;;;;;;21.03;11.83;;;14.40;99.90;;;;;;5014099;28;20551;-70
2023/05/09 08:46:38;;;;;;;22.00;11.13;;;14.50;99.90;;;;;;5012805;28;20081;-70
2023/05/09 08:49:06;;;;;;;18.63;11.63;;;14.50;99.90;;;;;;5014609;28;20026;-70
2023/05/09 08:51:32;;;;;;;19.05;11.43;;;14.50;99.90;;;;;;5023499;28;20449;-70
2023/05/09 08:53:58;;;;;;;18.92;11.07;;;14.50;99.90;;;;;;5012265;28;20480;-69
2023/05/09 08:56:25;;;;;;;19.25;11.95;;;14.50;99.90;;;;;;5010822;28;20108;-70
2023/05/09 08:58:51;;;;;;;;;;;14.50;99.90;;;;;;5012441;28;20075;-83
2023/05/09 09:01:17;;;;;;;16.13;10.18;;;14.50;99.90;;;;;;5017317;28;20369;-70
2023/05/09 09:03:46;;;;;;;16.38;9.70;;;14.40;99.90;;;;;;5018096;28;20034;-69
2023/05/09 09:06:13;;;;;;;14.93;10.40;;;14.40;99.90;;;;;;5010161;28;20018;-69
2023/05/09 09:08:39;;;;;;;14.18;9.15;;;14.40;99.90;;;;;;5006145;28;20022;-80
2023/05/09 09:11:06;;;;;;;13.85;9.75;;;14.50;99.90;;;;;;5012952;28;20026;-69
2023/05/09 09:13:35;;;;;;;19.38;11.07;;;14.50;99.90;;;;;;5014408;28;20578;-70
2023/05/09 09:16:01;;;;;;;14.70;10.00;;;14.50;99.90;;;;;;5005716;28;20041;-86
2023/05/09 09:18:29;;;;;;;15.77;10.03;;;14.50;99.90;;;;;;5016557;28;20022;-69
2023/05/09 09:21:06;;;;;;;20.08;9.25;;;14.50;99.90;;;;;;5012547;28;20425;-70
2023/05/09 09:23:32;;;;;;;;;;;14.50;99.90;;;;;;5014768;28;20102;-70
2023/05/09 09:25:59;;;;;;;12.82;8.70;;;14.50;99.90;;;;;;5019226;28;20007;-70
2023/05/09 09:28:25;;;;;;;16.40;9.02;;;14.60;99.90;;;;;;5010608;28;20025;-70
2023/05/09 09:30:51;;;;;;;19.05;9.02;;;14.70;99.90;;;;;;5013888;28;20026;-71
2023/05/09 09:33:22;;;;;;;13.30;9.83;;;14.70;99.90;;;;;;5009144;28;20417;-69
2023/05/09 09:35:52;;;;;;;15.20;9.02;;;14.70;99.90;;;;;;5023366;28;20014;-69
2023/05/09 09:38:18;;;;;;;14.63;9.05;;;14.70;99.90;;;;;;5024546;28;20108;-69
2023/05/09 09:40:57;;;;;;;13.63;9.18;;;14.80;99.90;;;;;;5016788;28;20029;-70
2023/05/09 09:43:30;;;;;;;14.75;8.43;;;14.80;99.90;;;;;;5015907;28;20058;-69
2023/05/09 09:45:59;;;;;;;12.90;8.43;;;14.70;99.90;;;;;;5023318;28;20060;-69
2023/05/09 09:48:26;;;;;;;12.45;7.97;;;14.70;99.90;;;;;;5012099;28;20058;-70
2023/05/09 09:50:58;;;;;;;14.48;8.88;;;14.80;99.90;;;;;;5017008;28;20042;-70
2023/05/09 09:53:29;;;;;;;11.45;8.43;;;14.80;99.90;;;;;;5018371;28;20061;-70
2023/05/09 09:55:54;;;;;;;11.93;7.88;;;14.90;99.90;;;;;;5019906;28;20025;-70
2023/05/09 09:58:23;;;;;;;16.43;8.67;;;14.80;99.90;;;;;;5019730;28;20033;-84
2023/05/09 10:01:12;;;;;;;14.77;8.00;;;14.90;99.90;;;;;;5023208;28;20034;-83
2023/05/09 10:03:40;;;;;;;15.10;8.18;;;14.90;99.90;;;;;;5019712;28;20029;-70
2023/05/09 10:06:10;;;;;;;11.27;8.02;;;14.90;99.90;;;;;;5018257;28;20298;-82
2023/05/09 10:08:36;;;;;;;14.60;7.88;;;14.90;99.90;;;;;;5010619;28;20023;-70
2023/05/09 10:11:02;;;;;;;15.03;8.33;;;14.90;99.90;;;;;;5015419;28;20257;-71
2023/05/09 10:13:28;;;;;;;15.02;8.40;;;14.80;99.90;;;;;;5591586;23;20005;-70
2023/05/09 10:15:56;;;;;;;15.60;8.17;;;14.90;99.90;;;;;;4994990;28;20338;-71
2023/05/09 10:18:27;;;;;;;12.15;8.02;;;14.90;99.90;;;;;;4986592;28;20027;-71
2023/05/09 10:20:53;;;;;;;13.32;8.00;;;15.00;99.90;;;;;;4981742;28;20337;-71
2023/05/09 10:23:21;;;;;;;13.20;8.05;;;15.00;99.90;;;;;;4994025;28;20030;-71
2023/05/09 10:25:55;;;;;;;13.55;8.05;;;15.10;99.90;;;;;;4997262;28;20341;-71
2023/05/09 10:28:25;;;;;;;12.77;8.50;;;15.00;99.90;;;;;;4990786;28;20073;-84
2023/05/09 10:31:13;;;;;;;11.45;8.52;;;15.10;99.90;;;;;;4985953;28;20430;-82
2023/05/09 10:34:00;;;;;;;12.63;8.48;;;15.20;99.90;;;;;;4987297;28;20449;-71
2023/05/09 10:36:27;;;;;;;11.77;8.48;;;15.10;99.90;;;;;;4994828;28;20042;-71
2023/05/09 10:38:54;;;;;;;13.50;7.78;;;15.10;99.90;;;;;;5004528;28;20053;-84
2023/05/09 10:41:24;;;;;;;11.65;8.02;;;15.00;99.90;;;;;;4990499;28;20027;-85
2023/05/09 10:43:50;;;;;;;11.57;8.32;;;15.00;99.90;;;;;;4987136;28;20330;-70
2023/05/09 10:46:16;;;;;;;14.40;8.57;;;15.00;99.90;;;;;;5004369;28;20023;-70
2023/05/09 10:48:45;;;;;;;12.45;7.68;;;15.00;99.90;;;;;;4993040;28;20093;-82
2023/05/09 10:51:11;;;;;;;13.13;7.35;;;14.90;99.90;;;;;;4987526;28;20030;-71
2023/05/09 10:53:44;;;;;;;10.57;7.65;;;14.90;99.90;;;;;;4987570;28;20031;-70
2023/05/09 10:56:34;;;;;;;10.63;7.07;;;14.90;99.90;;;;;;4981688;28;20121;-86
2023/05/09 10:59:01;;;;;;;15.65;7.40;;;14.80;99.90;;;;;;5005511;28;20030;-70
2023/05/09 11:01:38;;;;;;;10.80;7.60;;;14.80;99.90;;;;;;5003640;28;20030;-75
2023/05/09 11:04:15;;;;;;;14.05;7.47;;;14.90;99.90;;;;;;4984696;28;20089;-71
2023/05/09 11:06:43;;;;;;;8.95;6.53;;;14.80;99.90;;;;;;4985013;28;20066;-70
2023/05/09 11:09:40;;;;;;;14.63;8.05;;;14.80;99.90;;;;;;4984933;28;20019;-71
2023/05/09 11:12:11;;;;;;;12.10;6.82;;;14.90;99.90;;;;;;4985003;28;20031;-71
2023/05/09 11:14:43;;;;;;;11.95;7.80;;;14.90;99.90;;;;;;4985021;28;20596;-70
2023/05/09 11:17:21;;;;;;;13.30;7.95;;;14.90;99.90;;;;;;4981566;28;20121;-71
2023/05/09 11:19:47;;;;;;;12.32;7.93;;;14.90;99.90;;;;;;5001003;28;20026;-70
2023/05/09 11:22:20;;;;;;;13.27;8.67;;;14.80;99.90;;;;;;5016586;28;20525;-71
2023/05/09 11:24:52;;;;;;;12.98;8.43;;;14.90;99.90;;;;;;4997045;28;20160;-70
2023/05/09 11:27:19;;;;;;;11.80;7.93;;;14.90;99.90;;;;;;4999775;28;20026;-71
2023/05/09 11:29:50;;;;;;;14.68;8.63;;;14.90;99.90;;;;;;5000586;28;20030;-71
2023/05/09 11:32:16;;;;;;;10.23;7.55;;;14.90;99.90;;;;;;4990913;28;20656;-70
2023/05/09 11:34:44;;;;;;;11.05;8.05;;;14.90;99.90;;;;;;4996277;28;20053;-82
2023/05/09 11:37:11;;;;;;;12.00;8.05;;;15.00;99.90;;;;;;4998620;28;20027;-70
2023/05/09 11:40:07;;;;;;;12.85;8.30;;;15.00;99.90;;;;;;4981455;28;20107;-72
2023/05/09 11:42:33;;;;;;;10.18;7.45;;;15.10;99.90;;;;;;4952968;28;20039;-71
2023/05/09 11:44:58;;;;;;;12.33;8.87;;;15.10;99.90;;;;;;4958507;28;20042;-71
2023/05/09 11:47:25;;;;;;;11.37;7.67;;;15.00;99.90;;;;;;4959634;28;20389;-72
2023/05/09 11:49:51;;;;;;;10.13;7.60;;;15.00;99.90;;;;;;4957224;28;20044;-71
2023/05/09 11:52:21;;;;;;;10.70;7.40;;;15.00;99.90;;;;;;4959592;28;20058;-70
2023/05/09 11:54:48;;;;;;;14.52;8.75;;;15.00;99.90;;;;;;4958012;28;20047;-70
2023/05/09 11:57:17;;;;;;;14.05;7.90;;;15.10;99.90;;;;;;4955405;28;20054;-70
2023/05/09 11:59:44;;;;;;;11.77;8.18;;;15.10;99.90;;;;;;4961361;28;20035;-70
2023/05/09 12:02:10;;;;;;;14.18;7.85;;;15.10;99.90;;;;;;4938794;28;20042;-70
2023/05/09 12:04:36;;;;;;;13.32;8.07;;;15.10;99.90;;;;;;4955064;28;20037;-71
2023/05/09 12:07:02;;;;;;;10.45;7.50;;;15.10;99.90;;;;;;4949854;28;20356;-70
2023/05/09 12:09:31;;;;;;;13.53;8.00;;;15.20;99.90;;;;;;4940194;28;20045;-71
2023/05/09 12:11:58;;;;;;;14.32;8.38;;;15.20;99.90;;;;;;4950732;28;20046;-84
2023/05/09 12:14:28;;;;;;;13.05;8.98;;;15.20;99.90;;;;;;4965228;28;20051;-70
2023/05/09 12:16:54;;;;;;;11.60;7.38;;;15.20;99.90;;;;;;4948321;29;20095;-70
2023/05/09 12:19:22;;;;;;;10.57;7.63;;;15.10;99.90;;;;;;4992367;28;20041;-71
2023/05/09 12:21:47;;;;;;;10.30;7.55;;;15.10;99.90;;;;;;5000758;28;20026;-71
2023/05/09 12:24:18;;;;;;;12.60;8.03;;;15.10;99.90;;;;;;5006724;28;20118;-71
2023/05/09 12:26:44;;;;;;;11.55;7.45;;;15.10;99.90;;;;;;5006918;28;20413;-70
2023/05/09 12:29:11;;;;;;;9.17;6.90;;;15.00;99.90;;;;;;5002270;28;20040;-71
2023/05/09 12:31:37;;;;;;;10.50;7.28;;;15.10;99.90;;;;;;5007704;28;20041;-71
2023/05/09 12:34:03;;;;;;;9.27;6.30;;;15.10;99.90;;;;;;5004002;28;20034;-71